メインページ
METAR-TAF:

METAR-TAF

空港 :

ハリファックス・ロバート・L・スタンフィールド国際空港

ハリファックス, ノバスコシア州, カナダ

緯度: 44-53N, 経度: 063-30W, 海抜: 145m

現時点の気象観測

当レポートは8分前の05:32(UTC)に作成
東/南東の風 5kt
気温 15°C
湿度 100%
気圧 1023 hPa
視程: 1.6km

METAR: CYHZ 210532Z 11005KT 1SM R23/P6000FT/D R14/4000VP6000FT/D BR VV002 15/15 A3022 RMK FG8 SLP235

時間: 02:40 (05:40 UTC)

予報

当レポートは1時間21分前の04:19(UTC)に作成
予報は21日の 04時(UTC)から 21日の 24時(UTC)まで有効
南東の風 7kt
視程: 9.7km
高度500ftの千切れ雲あり
高度24000ftの千切れ雲あり
21日の 04時(UTC)から 21日の 14時(UTC)まで一時的に
視程: 4.8km
高度300ftの千切れ雲あり
確率 30%
21日の 08時(UTC)から 21日の 14時(UTC)まで
視程: 0.8km
高度200ftの曇り
21日の 1400時(UTC)から
の風 10kt
視程: 10km
高度1000ftの曇り
21日の 14時(UTC)から 21日の 22時(UTC)まで一時的に
視程: 4.8km
高度500ftの曇り
小霧雨, 靄
21日の 2200時(UTC)から
の風 5kt
視程: 1.6km
高度300ftの曇り
小霧雨, 靄

TAF: CYHZ 210419Z 2104/2124 13007KT 6SM BR BKN005 BKN240 TEMPO 2104/2114 3SM BR BKN003 PROB30 2108/2114 1/2SM FG OVC002 FM211400 09010KT P6SM OVC010 TEMPO 2114/2122 3SM -DZ BR OVC005 FM212200 18005KT 1SM -DZ BR OVC003 RMK NXT FCST BY 210600Z

4,000以上の空港の気象観測と天気予報(METAR報とTAF報)

利用可能な観測所は地図上に黄色い丸と赤い丸で示す。

丸の上にカーソルを重ねると観測所名を参照できる。

次にクリックすると気象観測と天気予報を参照できる。

マップの切り替え:黒色「×」印の緑ボタンをクリックして拡大、「-」印の緑ボタンをクリックして縮小、緑色の三角印をクリックして隣りの地図に切り替え


METAR-TAF: